sensor_id;sensor_type;location;lat;lon;timestamp;P1;durP1;ratioP1;P2;durP2;ratioP2
54841;SDS011;40741;45.002;7.536;2023-03-14T00:01:50;9.63;;;4.93;;
54841;SDS011;40741;45.002;7.536;2023-03-14T00:04:16;4.18;;;3.08;;
54841;SDS011;40741;45.002;7.536;2023-03-14T00:06:42;8.35;;;4.32;;
54841;SDS011;40741;45.002;7.536;2023-03-14T00:09:08;10.18;;;5.20;;
54841;SDS011;40741;45.002;7.536;2023-03-14T00:11:34;7.72;;;4.25;;
54841;SDS011;40741;45.002;7.536;2023-03-14T00:14:00;14.32;;;4.75;;
54841;SDS011;40741;45.002;7.536;2023-03-14T00:16:27;6.15;;;3.38;;
54841;SDS011;40741;45.002;7.536;2023-03-14T00:18:53;10.27;;;4.60;;
54841;SDS011;40741;45.002;7.536;2023-03-14T00:21:20;9.65;;;5.20;;
54841;SDS011;40741;45.002;7.536;2023-03-14T00:23:46;5.43;;;4.10;;
54841;SDS011;40741;45.002;7.536;2023-03-14T00:26:13;9.77;;;3.33;;
54841;SDS011;40741;45.002;7.536;2023-03-14T00:28:40;12.88;;;3.85;;
54841;SDS011;40741;45.002;7.536;2023-03-14T00:31:06;9.00;;;5.57;;
54841;SDS011;40741;45.002;7.536;2023-03-14T00:33:33;7.25;;;4.28;;
54841;SDS011;40741;45.002;7.536;2023-03-14T00:36:00;8.80;;;4.90;;
54841;SDS011;40741;45.002;7.536;2023-03-14T00:38:26;10.52;;;3.85;;
54841;SDS011;40741;45.002;7.536;2023-03-14T00:40:52;10.45;;;4.95;;
54841;SDS011;40741;45.002;7.536;2023-03-14T00:43:19;3.20;;;2.85;;
54841;SDS011;40741;45.002;7.536;2023-03-14T00:45:49;11.55;;;3.70;;
54841;SDS011;40741;45.002;7.536;2023-03-14T00:48:15;6.50;;;4.32;;
54841;SDS011;40741;45.002;7.536;2023-03-14T00:50:41;9.93;;;4.10;;
54841;SDS011;40741;45.002;7.536;2023-03-14T00:53:07;6.43;;;3.88;;
54841;SDS011;40741;45.002;7.536;2023-03-14T00:55:37;11.57;;;5.03;;
54841;SDS011;40741;45.002;7.536;2023-03-14T00:58:03;2.97;;;2.70;;
54841;SDS011;40741;45.002;7.536;2023-03-14T01:00:29;7.90;;;2.72;;
54841;SDS011;40741;45.002;7.536;2023-03-14T01:02:55;5.25;;;2.85;;
54841;SDS011;40741;45.002;7.536;2023-03-14T01:05:22;7.90;;;4.30;;
54841;SDS011;40741;45.002;7.536;2023-03-14T01:07:48;9.65;;;4.60;;
54841;SDS011;40741;45.002;7.536;2023-03-14T01:10:14;12.00;;;3.85;;
54841;SDS011;40741;45.002;7.536;2023-03-14T01:12:40;6.97;;;4.15;;
54841;SDS011;40741;45.002;7.536;2023-03-14T01:15:07;9.02;;;3.53;;
54841;SDS011;40741;45.002;7.536;2023-03-14T01:17:33;5.18;;;3.35;;
54841;SDS011;40741;45.002;7.536;2023-03-14T01:19:59;9.68;;;5.50;;
54841;SDS011;40741;45.002;7.536;2023-03-14T01:22:26;6.47;;;4.47;;
54841;SDS011;40741;45.002;7.536;2023-03-14T01:24:52;6.00;;;3.20;;
54841;SDS011;40741;45.002;7.536;2023-03-14T01:27:18;5.43;;;3.92;;
54841;SDS011;40741;45.002;7.536;2023-03-14T01:29:44;8.95;;;3.15;;
54841;SDS011;40741;45.002;7.536;2023-03-14T01:32:12;11.15;;;2.88;;
54841;SDS011;40741;45.002;7.536;2023-03-14T01:34:38;5.05;;;2.70;;
54841;SDS011;40741;45.002;7.536;2023-03-14T01:37:04;9.18;;;3.65;;
54841;SDS011;40741;45.002;7.536;2023-03-14T01:39:32;8.60;;;3.10;;
54841;SDS011;40741;45.002;7.536;2023-03-14T01:41:59;4.63;;;3.25;;
54841;SDS011;40741;45.002;7.536;2023-03-14T01:44:25;5.65;;;2.78;;
54841;SDS011;40741;45.002;7.536;2023-03-14T01:46:51;4.90;;;3.03;;
54841;SDS011;40741;45.002;7.536;2023-03-14T01:49:51;7.60;;;3.47;;
54841;SDS011;40741;45.002;7.536;2023-03-14T01:52:20;4.82;;;2.25;;
54841;SDS011;40741;45.002;7.536;2023-03-14T01:54:52;6.65;;;4.32;;
54841;SDS011;40741;45.002;7.536;2023-03-14T01:59:47;6.07;;;3.38;;
54841;SDS011;40741;45.002;7.536;2023-03-14T02:02:14;5.68;;;2.78;;
54841;SDS011;40741;45.002;7.536;2023-03-14T02:04:41;9.50;;;3.78;;
54841;SDS011;40741;45.002;7.536;2023-03-14T02:09:39;6.03;;;3.78;;
54841;SDS011;40741;45.002;7.536;2023-03-14T02:12:07;5.78;;;3.65;;
54841;SDS011;40741;45.002;7.536;2023-03-14T02:14:34;8.40;;;3.38;;
54841;SDS011;40741;45.002;7.536;2023-03-14T02:17:01;3.40;;;2.33;;
54841;SDS011;40741;45.002;7.536;2023-03-14T02:19:34;6.75;;;3.10;;
54841;SDS011;40741;45.002;7.536;2023-03-14T02:22:20;6.70;;;3.63;;
54841;SDS011;40741;45.002;7.536;2023-03-14T02:27:31;5.90;;;2.95;;
54841;SDS011;40741;45.002;7.536;2023-03-14T02:30:12;5.75;;;4.20;;
54841;SDS011;40741;45.002;7.536;2023-03-14T02:32:39;3.97;;;2.83;;
54841;SDS011;40741;45.002;7.536;2023-03-14T02:35:08;8.27;;;2.90;;
54841;SDS011;40741;45.002;7.536;2023-03-14T02:37:38;5.85;;;3.47;;
54841;SDS011;40741;45.002;7.536;2023-03-14T02:40:09;2.42;;;2.22;;
54841;SDS011;40741;45.002;7.536;2023-03-14T02:42:36;5.43;;;3.38;;
54841;SDS011;40741;45.002;7.536;2023-03-14T02:47:34;4.35;;;2.97;;
54841;SDS011;40741;45.002;7.536;2023-03-14T02:50:02;5.80;;;2.97;;
54841;SDS011;40741;45.002;7.536;2023-03-14T02:52:29;10.15;;;2.78;;
54841;SDS011;40741;45.002;7.536;2023-03-14T02:54:55;5.10;;;3.28;;
54841;SDS011;40741;45.002;7.536;2023-03-14T02:57:21;5.78;;;3.95;;
54841;SDS011;40741;45.002;7.536;2023-03-14T02:59:47;9.13;;;3.53;;
54841;SDS011;40741;45.002;7.536;2023-03-14T03:02:13;5.00;;;3.17;;
54841;SDS011;40741;45.002;7.536;2023-03-14T03:04:39;2.78;;;2.45;;
54841;SDS011;40741;45.002;7.536;2023-03-14T03:07:05;5.85;;;3.63;;
54841;SDS011;40741;45.002;7.536;2023-03-14T03:09:31;3.53;;;2.80;;
54841;SDS011;40741;45.002;7.536;2023-03-14T03:11:57;4.88;;;2.95;;
54841;SDS011;40741;45.002;7.536;2023-03-14T03:14:23;3.40;;;2.85;;
54841;SDS011;40741;45.002;7.536;2023-03-14T03:16:49;5.13;;;2.97;;
54841;SDS011;40741;45.002;7.536;2023-03-14T03:19:15;8.88;;;3.38;;
54841;SDS011;40741;45.002;7.536;2023-03-14T03:21:42;5.55;;;3.58;;
54841;SDS011;40741;45.002;7.536;2023-03-14T03:24:12;3.33;;;3.03;;
54841;SDS011;40741;45.002;7.536;2023-03-14T03:26:38;5.72;;;2.90;;
54841;SDS011;40741;45.002;7.536;2023-03-14T03:29:04;5.00;;;3.35;;
54841;SDS011;40741;45.002;7.536;2023-03-14T03:31:30;5.97;;;4.03;;
54841;SDS011;40741;45.002;7.536;2023-03-14T03:33:56;7.28;;;4.68;;
54841;SDS011;40741;45.002;7.536;2023-03-14T03:36:23;7.47;;;3.17;;
54841;SDS011;40741;45.002;7.536;2023-03-14T03:38:50;7.18;;;4.53;;
54841;SDS011;40741;45.002;7.536;2023-03-14T03:41:16;6.82;;;2.72;;
54841;SDS011;40741;45.002;7.536;2023-03-14T03:43:42;8.88;;;3.85;;
54841;SDS011;40741;45.002;7.536;2023-03-14T03:46:08;5.15;;;3.17;;
54841;SDS011;40741;45.002;7.536;2023-03-14T03:48:34;5.03;;;2.28;;
54841;SDS011;40741;45.002;7.536;2023-03-14T03:51:01;4.38;;;2.47;;
54841;SDS011;40741;45.002;7.536;2023-03-14T03:53:27;3.08;;;2.65;;
54841;SDS011;40741;45.002;7.536;2023-03-14T03:55:53;2.85;;;1.67;;
54841;SDS011;40741;45.002;7.536;2023-03-14T03:58:19;4.63;;;3.85;;
54841;SDS011;40741;45.002;7.536;2023-03-14T04:00:45;6.05;;;3.25;;
54841;SDS011;40741;45.002;7.536;2023-03-14T04:03:11;4.25;;;2.35;;
54841;SDS011;40741;45.002;7.536;2023-03-14T04:05:37;2.78;;;1.77;;
54841;SDS011;40741;45.002;7.536;2023-03-14T04:08:03;3.45;;;3.13;;
54841;SDS011;40741;45.002;7.536;2023-03-14T04:10:30;3.72;;;1.80;;
54841;SDS011;40741;45.002;7.536;2023-03-14T04:12:59;5.95;;;2.60;;
54841;SDS011;40741;45.002;7.536;2023-03-14T04:15:25;2.53;;;2.33;;
54841;SDS011;40741;45.002;7.536;2023-03-14T04:17:51;2.50;;;1.58;;
54841;SDS011;40741;45.002;7.536;2023-03-14T04:20:21;7.20;;;4.10;;
54841;SDS011;40741;45.002;7.536;2023-03-14T04:22:47;6.68;;;3.50;;
54841;SDS011;40741;45.002;7.536;2023-03-14T04:25:13;7.13;;;2.72;;
54841;SDS011;40741;45.002;7.536;2023-03-14T04:27:42;3.58;;;2.95;;
54841;SDS011;40741;45.002;7.536;2023-03-14T04:30:08;5.20;;;3.10;;
54841;SDS011;40741;45.002;7.536;2023-03-14T04:32:34;7.07;;;3.08;;
54841;SDS011;40741;45.002;7.536;2023-03-14T04:35:00;8.07;;;3.97;;
54841;SDS011;40741;45.002;7.536;2023-03-14T04:37:26;6.95;;;2.92;;
54841;SDS011;40741;45.002;7.536;2023-03-14T04:39:52;4.32;;;3.42;;
54841;SDS011;40741;45.002;7.536;2023-03-14T04:42:18;4.40;;;2.05;;
54841;SDS011;40741;45.002;7.536;2023-03-14T04:44:44;7.35;;;4.05;;
54841;SDS011;40741;45.002;7.536;2023-03-14T04:47:11;6.75;;;4.05;;
54841;SDS011;40741;45.002;7.536;2023-03-14T04:49:38;4.63;;;3.38;;
54841;SDS011;40741;45.002;7.536;2023-03-14T04:52:04;6.07;;;4.10;;
54841;SDS011;40741;45.002;7.536;2023-03-14T04:54:30;6.32;;;3.40;;
54841;SDS011;40741;45.002;7.536;2023-03-14T04:56:56;7.95;;;4.22;;
54841;SDS011;40741;45.002;7.536;2023-03-14T04:59:22;6.28;;;3.72;;
54841;SDS011;40741;45.002;7.536;2023-03-14T05:01:48;6.40;;;2.63;;
54841;SDS011;40741;45.002;7.536;2023-03-14T05:04:14;4.72;;;2.80;;
54841;SDS011;40741;45.002;7.536;2023-03-14T05:06:41;7.80;;;3.15;;
54841;SDS011;40741;45.002;7.536;2023-03-14T05:09:07;5.20;;;3.63;;
54841;SDS011;40741;45.002;7.536;2023-03-14T05:11:33;4.75;;;3.17;;
54841;SDS011;40741;45.002;7.536;2023-03-14T05:13:59;3.30;;;2.88;;
54841;SDS011;40741;45.002;7.536;2023-03-14T05:16:25;5.63;;;3.60;;
54841;SDS011;40741;45.002;7.536;2023-03-14T05:18:51;4.82;;;3.25;;
54841;SDS011;40741;45.002;7.536;2023-03-14T05:21:17;4.25;;;3.10;;
54841;SDS011;40741;45.002;7.536;2023-03-14T05:23:43;8.40;;;3.30;;
54841;SDS011;40741;45.002;7.536;2023-03-14T05:26:09;8.60;;;3.97;;
54841;SDS011;40741;45.002;7.536;2023-03-14T05:28:35;4.15;;;2.60;;
54841;SDS011;40741;45.002;7.536;2023-03-14T05:31:05;5.82;;;3.30;;
54841;SDS011;40741;45.002;7.536;2023-03-14T05:33:31;3.95;;;3.30;;
54841;SDS011;40741;45.002;7.536;2023-03-14T05:35:57;6.22;;;4.32;;
54841;SDS011;40741;45.002;7.536;2023-03-14T05:38:23;4.93;;;3.75;;
54841;SDS011;40741;45.002;7.536;2023-03-14T05:40:50;6.82;;;3.83;;
54841;SDS011;40741;45.002;7.536;2023-03-14T05:43:16;7.88;;;3.92;;
54841;SDS011;40741;45.002;7.536;2023-03-14T05:45:42;5.88;;;3.97;;
54841;SDS011;40741;45.002;7.536;2023-03-14T05:48:09;5.75;;;3.72;;
54841;SDS011;40741;45.002;7.536;2023-03-14T05:50:35;4.40;;;2.75;;
54841;SDS011;40741;45.002;7.536;2023-03-14T05:53:01;4.78;;;2.50;;
54841;SDS011;40741;45.002;7.536;2023-03-14T05:55:27;9.27;;;4.25;;
54841;SDS011;40741;45.002;7.536;2023-03-14T05:57:54;5.85;;;4.00;;
54841;SDS011;40741;45.002;7.536;2023-03-14T06:00:20;6.68;;;4.78;;
54841;SDS011;40741;45.002;7.536;2023-03-14T06:02:46;4.68;;;3.03;;
54841;SDS011;40741;45.002;7.536;2023-03-14T06:05:12;7.80;;;4.43;;
54841;SDS011;40741;45.002;7.536;2023-03-14T06:07:38;6.07;;;3.60;;
54841;SDS011;40741;45.002;7.536;2023-03-14T06:10:05;8.75;;;4.38;;
54841;SDS011;40741;45.002;7.536;2023-03-14T06:12:31;5.05;;;3.38;;
54841;SDS011;40741;45.002;7.536;2023-03-14T06:14:57;6.50;;;3.67;;
54841;SDS011;40741;45.002;7.536;2023-03-14T06:17:23;8.63;;;4.55;;
54841;SDS011;40741;45.002;7.536;2023-03-14T06:19:49;10.02;;;5.70;;
54841;SDS011;40741;45.002;7.536;2023-03-14T06:22:16;12.80;;;4.07;;
54841;SDS011;40741;45.002;7.536;2023-03-14T06:24:42;3.63;;;2.63;;
54841;SDS011;40741;45.002;7.536;2023-03-14T06:27:08;6.18;;;3.25;;
54841;SDS011;40741;45.002;7.536;2023-03-14T06:29:34;4.93;;;2.70;;
54841;SDS011;40741;45.002;7.536;2023-03-14T06:32:00;7.85;;;4.53;;
54841;SDS011;40741;45.002;7.536;2023-03-14T06:34:26;4.32;;;2.97;;
54841;SDS011;40741;45.002;7.536;2023-03-14T06:36:52;9.55;;;3.88;;
54841;SDS011;40741;45.002;7.536;2023-03-14T06:39:18;8.70;;;4.28;;
54841;SDS011;40741;45.002;7.536;2023-03-14T06:41:44;4.90;;;3.35;;
54841;SDS011;40741;45.002;7.536;2023-03-14T06:44:10;7.57;;;4.15;;
54841;SDS011;40741;45.002;7.536;2023-03-14T06:46:36;3.15;;;2.65;;
54841;SDS011;40741;45.002;7.536;2023-03-14T06:49:02;4.18;;;3.05;;
54841;SDS011;40741;45.002;7.536;2023-03-14T06:51:29;3.63;;;3.03;;
54841;SDS011;40741;45.002;7.536;2023-03-14T06:53:55;5.97;;;3.60;;
54841;SDS011;40741;45.002;7.536;2023-03-14T06:56:21;3.42;;;3.13;;
54841;SDS011;40741;45.002;7.536;2023-03-14T06:58:47;3.28;;;2.30;;
54841;SDS011;40741;45.002;7.536;2023-03-14T07:01:26;6.97;;;3.95;;
54841;SDS011;40741;45.002;7.536;2023-03-14T07:03:53;4.40;;;3.25;;
54841;SDS011;40741;45.002;7.536;2023-03-14T07:06:19;5.78;;;3.10;;
54841;SDS011;40741;45.002;7.536;2023-03-14T07:08:45;6.65;;;2.55;;
54841;SDS011;40741;45.002;7.536;2023-03-14T07:11:11;8.60;;;3.72;;
54841;SDS011;40741;45.002;7.536;2023-03-14T07:13:38;7.05;;;3.88;;
54841;SDS011;40741;45.002;7.536;2023-03-14T07:16:04;4.70;;;3.63;;
54841;SDS011;40741;45.002;7.536;2023-03-14T07:18:30;6.50;;;3.70;;
54841;SDS011;40741;45.002;7.536;2023-03-14T07:20:57;6.30;;;4.40;;
54841;SDS011;40741;45.002;7.536;2023-03-14T07:23:23;4.72;;;3.35;;
54841;SDS011;40741;45.002;7.536;2023-03-14T07:25:49;7.10;;;4.80;;
54841;SDS011;40741;45.002;7.536;2023-03-14T07:28:18;3.08;;;2.28;;
54841;SDS011;40741;45.002;7.536;2023-03-14T07:30:46;7.32;;;2.88;;
54841;SDS011;40741;45.002;7.536;2023-03-14T07:33:12;5.68;;;2.35;;
54841;SDS011;40741;45.002;7.536;2023-03-14T07:35:38;6.43;;;3.65;;
54841;SDS011;40741;45.002;7.536;2023-03-14T07:38:04;3.15;;;2.15;;
54841;SDS011;40741;45.002;7.536;2023-03-14T07:40:30;4.68;;;2.80;;
54841;SDS011;40741;45.002;7.536;2023-03-14T07:42:56;7.22;;;1.98;;
54841;SDS011;40741;45.002;7.536;2023-03-14T07:45:23;8.13;;;2.97;;
54841;SDS011;40741;45.002;7.536;2023-03-14T07:47:49;3.80;;;2.85;;
54841;SDS011;40741;45.002;7.536;2023-03-14T07:50:15;3.40;;;2.58;;
54841;SDS011;40741;45.002;7.536;2023-03-14T07:52:41;2.80;;;1.63;;
54841;SDS011;40741;45.002;7.536;2023-03-14T07:55:08;3.70;;;1.70;;
54841;SDS011;40741;45.002;7.536;2023-03-14T07:57:34;3.60;;;1.85;;
54841;SDS011;40741;45.002;7.536;2023-03-14T08:00:00;2.28;;;1.85;;
54841;SDS011;40741;45.002;7.536;2023-03-14T08:02:26;1.30;;;0.93;;
54841;SDS011;40741;45.002;7.536;2023-03-14T08:04:52;2.67;;;1.42;;
54841;SDS011;40741;45.002;7.536;2023-03-14T08:07:18;2.60;;;1.40;;
54841;SDS011;40741;45.002;7.536;2023-03-14T08:09:45;3.45;;;2.53;;
54841;SDS011;40741;45.002;7.536;2023-03-14T08:12:11;3.05;;;2.00;;
54841;SDS011;40741;45.002;7.536;2023-03-14T08:14:37;4.05;;;2.30;;
54841;SDS011;40741;45.002;7.536;2023-03-14T08:17:03;3.83;;;3.10;;
54841;SDS011;40741;45.002;7.536;2023-03-14T08:19:30;7.25;;;4.65;;
54841;SDS011;40741;45.002;7.536;2023-03-14T08:21:56;4.90;;;2.35;;
54841;SDS011;40741;45.002;7.536;2023-03-14T08:24:22;5.30;;;3.25;;
54841;SDS011;40741;45.002;7.536;2023-03-14T08:26:48;4.45;;;2.58;;
54841;SDS011;40741;45.002;7.536;2023-03-14T08:29:15;6.18;;;3.22;;
54841;SDS011;40741;45.002;7.536;2023-03-14T08:31:41;6.88;;;2.63;;
54841;SDS011;40741;45.002;7.536;2023-03-14T08:34:07;5.05;;;3.60;;
54841;SDS011;40741;45.002;7.536;2023-03-14T08:36:33;3.83;;;2.92;;
54841;SDS011;40741;45.002;7.536;2023-03-14T08:38:59;4.55;;;2.55;;
54841;SDS011;40741;45.002;7.536;2023-03-14T08:41:25;2.88;;;2.40;;
54841;SDS011;40741;45.002;7.536;2023-03-14T08:43:51;3.55;;;1.80;;
54841;SDS011;40741;45.002;7.536;2023-03-14T08:46:17;3.67;;;1.50;;
54841;SDS011;40741;45.002;7.536;2023-03-14T08:48:43;6.03;;;2.53;;
54841;SDS011;40741;45.002;7.536;2023-03-14T08:51:10;3.72;;;2.03;;
54841;SDS011;40741;45.002;7.536;2023-03-14T08:53:37;3.22;;;1.83;;
54841;SDS011;40741;45.002;7.536;2023-03-14T08:56:04;2.00;;;1.75;;
54841;SDS011;40741;45.002;7.536;2023-03-14T08:58:31;5.10;;;2.67;;
54841;SDS011;40741;45.002;7.536;2023-03-14T09:00:57;3.45;;;1.70;;
54841;SDS011;40741;45.002;7.536;2023-03-14T09:03:23;5.63;;;3.22;;
54841;SDS011;40741;45.002;7.536;2023-03-14T09:05:50;2.80;;;2.05;;
54841;SDS011;40741;45.002;7.536;2023-03-14T09:08:16;5.00;;;2.67;;
54841;SDS011;40741;45.002;7.536;2023-03-14T09:10:42;3.90;;;2.65;;
54841;SDS011;40741;45.002;7.536;2023-03-14T09:13:08;5.07;;;3.08;;
54841;SDS011;40741;45.002;7.536;2023-03-14T09:15:34;7.65;;;2.25;;
54841;SDS011;40741;45.002;7.536;2023-03-14T09:18:00;6.97;;;2.78;;
54841;SDS011;40741;45.002;7.536;2023-03-14T09:20:26;3.83;;;2.83;;
54841;SDS011;40741;45.002;7.536;2023-03-14T09:22:53;3.03;;;1.98;;
54841;SDS011;40741;45.002;7.536;2023-03-14T09:25:19;3.78;;;2.17;;
54841;SDS011;40741;45.002;7.536;2023-03-14T09:27:45;2.75;;;1.95;;
54841;SDS011;40741;45.002;7.536;2023-03-14T09:30:11;3.40;;;2.25;;
54841;SDS011;40741;45.002;7.536;2023-03-14T09:32:37;3.60;;;2.22;;
54841;SDS011;40741;45.002;7.536;2023-03-14T09:35:04;2.35;;;2.15;;
54841;SDS011;40741;45.002;7.536;2023-03-14T09:37:30;2.20;;;1.70;;
54841;SDS011;40741;45.002;7.536;2023-03-14T09:39:56;4.13;;;1.77;;
54841;SDS011;40741;45.002;7.536;2023-03-14T09:42:23;2.40;;;1.42;;
54841;SDS011;40741;45.002;7.536;2023-03-14T09:44:54;2.88;;;1.58;;
54841;SDS011;40741;45.002;7.536;2023-03-14T09:47:21;2.80;;;1.48;;
54841;SDS011;40741;45.002;7.536;2023-03-14T09:49:49;0.55;;;0.55;;
54841;SDS011;40741;45.002;7.536;2023-03-14T09:52:17;4.75;;;2.03;;
54841;SDS011;40741;45.002;7.536;2023-03-14T09:54:59;3.58;;;1.80;;
54841;SDS011;40741;45.002;7.536;2023-03-14T09:57:32;3.03;;;1.27;;
54841;SDS011;40741;45.002;7.536;2023-03-14T10:02:50;1.63;;;1.52;;
54841;SDS011;40741;45.002;7.536;2023-03-14T10:05:18;1.77;;;1.50;;
54841;SDS011;40741;45.002;7.536;2023-03-14T10:07:44;2.05;;;1.55;;
54841;SDS011;40741;45.002;7.536;2023-03-14T10:10:13;2.58;;;1.42;;
54841;SDS011;40741;45.002;7.536;2023-03-14T10:12:39;4.13;;;1.63;;
54841;SDS011;40741;45.002;7.536;2023-03-14T10:15:08;3.33;;;2.33;;
54841;SDS011;40741;45.002;7.536;2023-03-14T10:17:42;4.57;;;1.27;;
54841;SDS011;40741;45.002;7.536;2023-03-14T10:20:26;2.03;;;1.48;;
54841;SDS011;40741;45.002;7.536;2023-03-14T10:22:57;2.20;;;1.45;;
54841;SDS011;40741;45.002;7.536;2023-03-14T10:25:27;2.95;;;1.73;;
54841;SDS011;40741;45.002;7.536;2023-03-14T10:27:54;2.38;;;1.70;;
54841;SDS011;40741;45.002;7.536;2023-03-14T10:33:07;1.45;;;0.77;;
54841;SDS011;40741;45.002;7.536;2023-03-14T10:35:33;1.75;;;1.20;;
54841;SDS011;40741;45.002;7.536;2023-03-14T10:38:00;5.65;;;1.20;;
54841;SDS011;40741;45.002;7.536;2023-03-14T10:40:28;2.20;;;1.30;;
54841;SDS011;40741;45.002;7.536;2023-03-14T10:42:55;2.30;;;1.25;;
54841;SDS011;40741;45.002;7.536;2023-03-14T10:47:50;2.78;;;1.60;;
54841;SDS011;40741;45.002;7.536;2023-03-14T10:50:24;2.38;;;1.42;;
54841;SDS011;40741;45.002;7.536;2023-03-14T10:52:51;1.77;;;1.27;;
54841;SDS011;40741;45.002;7.536;2023-03-14T10:55:17;3.33;;;1.30;;
54841;SDS011;40741;45.002;7.536;2023-03-14T10:57:43;2.28;;;1.40;;
54841;SDS011;40741;45.002;7.536;2023-03-14T11:00:14;0.90;;;0.85;;
54841;SDS011;40741;45.002;7.536;2023-03-14T11:05:21;2.20;;;1.60;;
54841;SDS011;40741;45.002;7.536;2023-03-14T11:07:53;9.15;;;2.40;;
54841;SDS011;40741;45.002;7.536;2023-03-14T11:10:24;2.00;;;1.00;;
54841;SDS011;40741;45.002;7.536;2023-03-14T11:18:40;1.77;;;1.42;;
54841;SDS011;40741;45.002;7.536;2023-03-14T11:21:51;2.60;;;1.42;;
54841;SDS011;40741;45.002;7.536;2023-03-14T11:31:44;2.33;;;0.80;;
54841;SDS011;40741;45.002;7.536;2023-03-14T11:39:11;3.25;;;1.90;;
54841;SDS011;40741;45.002;7.536;2023-03-14T11:41:40;2.45;;;1.23;;
54841;SDS011;40741;45.002;7.536;2023-03-14T11:44:10;1.35;;;1.25;;
54841;SDS011;40741;45.002;7.536;2023-03-14T11:46:44;1.50;;;1.25;;
54841;SDS011;40741;45.002;7.536;2023-03-14T11:51:58;2.03;;;1.40;;
54841;SDS011;40741;45.002;7.536;2023-03-14T11:56:57;1.27;;;1.05;;
54841;SDS011;40741;45.002;7.536;2023-03-14T12:04:34;3.78;;;1.67;;
54841;SDS011;40741;45.002;7.536;2023-03-14T12:09:30;1.65;;;1.55;;
54841;SDS011;40741;45.002;7.536;2023-03-14T12:11:57;3.70;;;1.50;;
54841;SDS011;40741;45.002;7.536;2023-03-14T12:14:35;2.95;;;1.50;;
54841;SDS011;40741;45.002;7.536;2023-03-14T12:19:28;4.53;;;1.38;;
54841;SDS011;40741;45.002;7.536;2023-03-14T12:24:34;4.43;;;1.48;;
54841;SDS011;40741;45.002;7.536;2023-03-14T12:27:02;2.15;;;0.88;;
54841;SDS011;40741;45.002;7.536;2023-03-14T12:29:29;1.88;;;1.30;;
54841;SDS011;40741;45.002;7.536;2023-03-14T12:34:39;1.60;;;1.38;;
54841;SDS011;40741;45.002;7.536;2023-03-14T12:37:28;1.75;;;1.55;;
54841;SDS011;40741;45.002;7.536;2023-03-14T12:45:25;3.67;;;2.50;;
54841;SDS011;40741;45.002;7.536;2023-03-14T12:50:29;2.72;;;1.33;;
54841;SDS011;40741;45.002;7.536;2023-03-14T12:58:08;4.70;;;2.00;;
54841;SDS011;40741;45.002;7.536;2023-03-14T13:00:39;5.25;;;1.38;;
54841;SDS011;40741;45.002;7.536;2023-03-14T13:05:57;2.75;;;2.17;;
54841;SDS011;40741;45.002;7.536;2023-03-14T13:08:34;3.80;;;2.28;;
54841;SDS011;40741;45.002;7.536;2023-03-14T13:11:01;7.30;;;2.25;;
54841;SDS011;40741;45.002;7.536;2023-03-14T13:13:27;5.47;;;3.13;;
54841;SDS011;40741;45.002;7.536;2023-03-14T13:15:57;1.38;;;1.23;;
54841;SDS011;40741;45.002;7.536;2023-03-14T13:21:16;6.82;;;1.27;;
54841;SDS011;40741;45.002;7.536;2023-03-14T13:23:55;1.17;;;0.90;;
54841;SDS011;40741;45.002;7.536;2023-03-14T13:26:21;2.88;;;1.92;;
54841;SDS011;40741;45.002;7.536;2023-03-14T13:28:49;2.78;;;1.83;;
54841;SDS011;40741;45.002;7.536;2023-03-14T13:31:20;3.22;;;1.52;;
54841;SDS011;40741;45.002;7.536;2023-03-14T13:33:56;4.30;;;2.35;;
54841;SDS011;40741;45.002;7.536;2023-03-14T13:36:22;2.58;;;1.77;;
54841;SDS011;40741;45.002;7.536;2023-03-14T13:38:54;5.65;;;2.45;;
54841;SDS011;40741;45.002;7.536;2023-03-14T13:41:22;2.67;;;1.75;;
54841;SDS011;40741;45.002;7.536;2023-03-14T13:43:49;5.25;;;0.80;;
54841;SDS011;40741;45.002;7.536;2023-03-14T13:46:24;4.72;;;1.63;;
54841;SDS011;40741;45.002;7.536;2023-03-14T13:48:52;3.60;;;1.50;;
54841;SDS011;40741;45.002;7.536;2023-03-14T13:51:19;3.55;;;1.33;;
54841;SDS011;40741;45.002;7.536;2023-03-14T13:53:50;1.75;;;1.05;;
54841;SDS011;40741;45.002;7.536;2023-03-14T13:56:18;4.97;;;2.72;;
54841;SDS011;40741;45.002;7.536;2023-03-14T13:58:44;5.93;;;0.80;;
54841;SDS011;40741;45.002;7.536;2023-03-14T14:01:17;3.20;;;1.63;;
54841;SDS011;40741;45.002;7.536;2023-03-14T14:03:53;2.47;;;1.98;;
54841;SDS011;40741;45.002;7.536;2023-03-14T14:06:27;3.47;;;1.15;;
54841;SDS011;40741;45.002;7.536;2023-03-14T14:08:55;3.05;;;1.75;;
54841;SDS011;40741;45.002;7.536;2023-03-14T14:11:26;1.75;;;0.88;;
54841;SDS011;40741;45.002;7.536;2023-03-14T14:13:54;1.70;;;1.52;;
54841;SDS011;40741;45.002;7.536;2023-03-14T14:16:21;4.22;;;2.10;;
54841;SDS011;40741;45.002;7.536;2023-03-14T14:18:52;0.75;;;0.75;;
54841;SDS011;40741;45.002;7.536;2023-03-14T14:21:21;2.30;;;0.28;;
54841;SDS011;40741;45.002;7.536;2023-03-14T14:23:47;7.50;;;2.03;;
54841;SDS011;40741;45.002;7.536;2023-03-14T14:26:15;1.10;;;1.00;;
54841;SDS011;40741;45.002;7.536;2023-03-14T14:28:42;1.77;;;1.20;;
54841;SDS011;40741;45.002;7.536;2023-03-14T14:36:12;3.65;;;1.63;;
54841;SDS011;40741;45.002;7.536;2023-03-14T14:38:40;2.33;;;0.88;;
54841;SDS011;40741;45.002;7.536;2023-03-14T14:41:06;0.68;;;0.68;;
54841;SDS011;40741;45.002;7.536;2023-03-14T14:43:36;2.95;;;1.38;;
54841;SDS011;40741;45.002;7.536;2023-03-14T14:46:05;3.45;;;1.63;;
54841;SDS011;40741;45.002;7.536;2023-03-14T14:48:35;6.55;;;2.13;;
54841;SDS011;40741;45.002;7.536;2023-03-14T14:51:02;5.07;;;2.13;;
54841;SDS011;40741;45.002;7.536;2023-03-14T14:55:56;2.60;;;1.90;;
54841;SDS011;40741;45.002;7.536;2023-03-14T14:58:24;1.08;;;0.85;;
54841;SDS011;40741;45.002;7.536;2023-03-14T15:00:53;0.98;;;0.60;;
54841;SDS011;40741;45.002;7.536;2023-03-14T15:03:20;1.90;;;0.50;;
54841;SDS011;40741;45.002;7.536;2023-03-14T15:05:46;1.05;;;0.75;;
54841;SDS011;40741;45.002;7.536;2023-03-14T15:08:12;0.28;;;0.20;;
54841;SDS011;40741;45.002;7.536;2023-03-14T15:10:38;6.72;;;1.40;;
54841;SDS011;40741;45.002;7.536;2023-03-14T15:13:04;1.27;;;0.55;;
54841;SDS011;40741;45.002;7.536;2023-03-14T15:15:31;0.65;;;0.25;;
54841;SDS011;40741;45.002;7.536;2023-03-14T15:17:57;2.53;;;1.02;;
54841;SDS011;40741;45.002;7.536;2023-03-14T15:20:23;1.48;;;0.70;;
54841;SDS011;40741;45.002;7.536;2023-03-14T15:22:49;1.00;;;0.45;;
54841;SDS011;40741;45.002;7.536;2023-03-14T15:25:16;2.35;;;0.47;;
54841;SDS011;40741;45.002;7.536;2023-03-14T15:27:42;5.47;;;1.05;;
54841;SDS011;40741;45.002;7.536;2023-03-14T15:30:10;2.20;;;1.08;;
54841;SDS011;40741;45.002;7.536;2023-03-14T15:32:36;1.45;;;0.88;;
54841;SDS011;40741;45.002;7.536;2023-03-14T15:35:03;1.00;;;0.73;;
54841;SDS011;40741;45.002;7.536;2023-03-14T15:37:29;2.40;;;0.95;;
54841;SDS011;40741;45.002;7.536;2023-03-14T15:39:56;2.78;;;1.27;;
54841;SDS011;40741;45.002;7.536;2023-03-14T15:42:23;0.98;;;0.70;;
54841;SDS011;40741;45.002;7.536;2023-03-14T15:44:49;0.43;;;0.43;;
54841;SDS011;40741;45.002;7.536;2023-03-14T15:47:15;1.30;;;0.90;;
54841;SDS011;40741;45.002;7.536;2023-03-14T15:49:41;0.17;;;0.17;;
54841;SDS011;40741;45.002;7.536;2023-03-14T15:52:07;1.38;;;0.55;;
54841;SDS011;40741;45.002;7.536;2023-03-14T15:54:34;2.05;;;0.50;;
54841;SDS011;40741;45.002;7.536;2023-03-14T15:57:00;4.10;;;0.85;;
54841;SDS011;40741;45.002;7.536;2023-03-14T15:59:26;1.77;;;0.43;;
54841;SDS011;40741;45.002;7.536;2023-03-14T16:01:52;0.35;;;0.30;;
54841;SDS011;40741;45.002;7.536;2023-03-14T16:04:18;0.50;;;0.50;;
54841;SDS011;40741;45.002;7.536;2023-03-14T16:06:44;2.40;;;0.95;;
54841;SDS011;40741;45.002;7.536;2023-03-14T16:09:11;2.13;;;1.55;;
54841;SDS011;40741;45.002;7.536;2023-03-14T16:11:37;0.82;;;0.28;;
54841;SDS011;40741;45.002;7.536;2023-03-14T16:14:04;3.22;;;0.93;;
54841;SDS011;40741;45.002;7.536;2023-03-14T16:16:30;3.95;;;1.30;;